Time;durP1;ratioP1;P1;durP2;ratioP2;P2;SDS_P1;SDS_P2;PMS_P1;PMS_P2;Temp;Humidity;BMP_temperature;BMP_pressure;BME280_temperature;BME280_humidity;BME280_pressure;Samples;Min_cycle;Max_cycle;Signal;HPM_P1;HPM_P2
2021/04/15 00:00:07;;;;;;;4.45;2.00;;;;;;;1.20;81.96;103456.31;5040735;28;20099;-75
2021/04/15 00:02:34;;;;;;;3.47;1.73;;;;;;;1.16;82.45;103452.63;5039790;28;20073;-74
2021/04/15 00:05:01;;;;;;;4.57;2.13;;;;;;;1.14;82.44;103456.00;5041997;28;20052;-73
2021/04/15 00:07:28;;;;;;;4.00;2.17;;;;;;;1.09;82.48;103451.44;5038729;28;20056;-72
2021/04/15 00:09:58;;;;;;;4.55;2.42;;;;;;;1.06;82.19;103453.91;5042618;28;20065;-75
2021/04/15 00:12:25;;;;;;;3.78;2.33;;;;;;;1.01;82.59;103455.41;5040188;28;20134;-71
2021/04/15 00:14:52;;;;;;;4.60;2.00;;;;;;;0.93;82.14;103452.38;5038180;28;20577;-71
2021/04/15 00:17:19;;;;;;;3.70;2.08;;;;;;;0.91;82.89;103461.03;5043443;28;20559;-71
2021/04/15 00:19:50;;;;;;;3.40;2.30;;;;;;;0.88;83.22;103460.88;5039147;28;20313;-71
2021/04/15 00:22:16;;;;;;;3.72;2.05;;;;;;;0.87;84.40;103460.00;5039561;28;20056;-71
2021/04/15 00:24:43;;;;;;;3.55;1.90;;;;;;;0.80;83.55;103455.25;5034207;28;20057;-72
2021/04/15 00:27:10;;;;;;;2.95;1.95;;;;;;;0.77;84.05;103444.59;5041485;28;20057;-71
2021/04/15 00:29:36;;;;;;;2.53;1.83;;;;;;;0.71;84.62;103445.16;5036547;28;20076;-71
2021/04/15 00:32:04;;;;;;;5.13;2.05;;;;;;;0.67;84.20;103448.47;5041484;28;20063;-71
2021/04/15 00:34:32;;;;;;;5.35;2.30;;;;;;;0.62;83.79;103436.81;5039234;28;20103;-71
2021/04/15 00:36:59;;;;;;;5.00;2.30;;;;;;;0.61;84.96;103432.38;5038988;28;20064;-70
2021/04/15 00:39:26;;;;;;;5.80;2.28;;;;;;;0.59;85.46;103430.53;5042162;28;20065;-73
2021/04/15 00:41:53;;;;;;;6.78;2.30;;;;;;;0.53;84.70;103433.75;5039266;28;20056;-73
2021/04/15 00:44:19;;;;;;;3.33;1.98;;;;;;;0.49;84.86;103422.16;5044291;28;20067;-73
2021/04/15 00:46:52;;;;;;;3.65;2.13;;;;;;;0.45;84.99;103425.47;5039610;28;20067;-73
2021/04/15 00:49:27;;;;;;;3.85;2.03;;;;;;;0.43;84.73;103429.75;5042929;28;20057;-73
2021/04/15 00:51:57;;;;;;;6.20;2.58;;;;;;;0.42;85.61;103422.66;5037168;28;20111;-73
2021/04/15 00:54:43;;;;;;;3.42;1.85;;;;;;;0.38;85.22;103420.72;5038441;28;20288;-73
2021/04/15 00:57:18;;;;;;;5.40;2.25;;;;;;;0.35;86.22;103416.19;5035431;28;20507;-73
2021/04/15 00:59:46;;;;;;;4.38;2.30;;;;;;;0.33;85.92;103423.09;5039743;28;20371;-73
2021/04/15 01:02:15;;;;;;;5.03;2.13;;;;;;;0.30;85.96;103417.69;5038461;28;20440;-73
2021/04/15 01:04:43;;;;;;;5.05;2.33;;;;;;;0.27;86.01;103414.00;5037489;28;20925;-73
2021/04/15 01:07:11;;;;;;;2.33;1.90;;;;;;;0.24;86.19;103414.75;5035553;28;20333;-72
2021/04/15 01:09:38;;;;;;;3.38;2.10;;;;;;;0.23;86.14;103406.81;5038677;28;20069;-73
2021/04/15 01:12:26;;;;;;;4.47;2.13;;;;;;;0.18;86.14;103410.06;5036421;28;20064;-73
2021/04/15 01:15:08;;;;;;;5.68;2.55;;;;;;;0.18;86.63;103410.06;5038956;28;20342;-73
2021/04/15 01:17:44;;;;;;;4.53;2.20;;;;;;;0.15;86.48;103403.78;5034392;28;20095;-72
2021/04/15 01:21:00;;;;;;;3.83;1.92;;;;;;;0.16;87.04;103405.59;5043480;28;20367;-73
2021/04/15 01:23:33;;;;;;;4.03;1.85;;;;;;;0.11;86.77;103405.34;5036874;28;20057;-71
2021/04/15 01:26:34;;;;;;;5.38;2.15;;;;;;;0.09;86.57;103406.09;5044024;28;20106;-71
2021/04/15 01:29:21;;;;;;;3.80;2.13;;;;;;;0.10;86.81;103405.25;5037376;28;20056;-71
2021/04/15 01:31:59;;;;;;;4.72;2.40;;;;;;;0.12;87.38;103396.66;5041345;28;20396;-70
2021/04/15 01:34:38;;;;;;;5.32;2.50;;;;;;;0.10;87.26;103400.00;5035095;28;20061;-71
2021/04/15 01:37:10;;;;;;;4.40;2.80;;;;;;;0.09;87.44;103392.97;5042320;28;20063;-71
2021/04/15 01:39:43;;;;;;;4.68;2.35;;;;;;;0.10;88.17;103395.69;5035176;28;20339;-74
2021/04/15 01:42:16;;;;;;;5.38;2.28;;;;;;;0.06;87.35;103398.06;5039282;28;20068;-73
2021/04/15 01:44:48;;;;;;;4.18;2.10;;;;;;;0.03;86.80;103398.78;5037154;28;20518;-74
2021/04/15 01:47:20;;;;;;;5.80;2.30;;;;;;;0.03;87.22;103396.16;5038687;28;20069;-75
2021/04/15 01:49:52;;;;;;;5.45;2.45;;;;;;;-0.02;87.66;103402.88;5038606;28;20092;-73
2021/04/15 01:52:19;;;;;;;4.88;2.38;;;;;;;-0.03;87.09;103401.09;5037212;28;20140;-73
2021/04/15 01:54:52;;;;;;;5.38;2.47;;;;;;;-0.06;87.28;103398.31;5038681;28;20073;-71
2021/04/15 01:57:25;;;;;;;5.47;2.65;;;;;;;-0.06;87.91;103400.94;5039186;28;20096;-74
2021/04/15 02:00:02;;;;;;;4.55;2.67;;;;;;;-0.06;88.45;103395.69;5035382;28;20106;-73
2021/04/15 02:02:32;;;;;;;4.07;2.30;;;;;;;-0.08;87.78;103392.09;5039546;28;20053;-72
2021/04/15 02:05:06;;;;;;;4.32;2.47;;;;;;;-0.10;87.84;103394.63;5036424;28;20060;-72
2021/04/15 02:07:39;;;;;;;4.45;2.70;;;;;;;-0.10;87.94;103391.06;5040176;28;20060;-72
2021/04/15 02:10:10;;;;;;;3.70;2.22;;;;;;;-0.11;87.90;103389.28;5036097;28;20065;-71
2021/04/15 02:12:40;;;;;;;5.38;3.10;;;;;;;-0.11;88.22;103386.66;5041308;28;20057;-73
2021/04/15 02:15:14;;;;;;;3.75;2.35;;;;;;;-0.10;88.36;103393.69;5034339;28;20057;-73
2021/04/15 02:17:41;;;;;;;6.07;3.05;;;;;;;-0.15;87.99;103393.47;5040103;28;20052;-73
2021/04/15 02:20:15;;;;;;;7.95;2.95;;;;;;;-0.14;88.37;103389.13;5036360;28;20069;-73
2021/04/15 02:22:50;;;;;;;6.78;3.25;;;;;;;-0.10;88.58;103386.75;5037931;28;20063;-75
2021/04/15 02:25:23;;;;;;;4.40;2.40;;;;;;;-0.16;87.90;103388.16;5038551;28;20072;-76
2021/04/15 02:27:56;;;;;;;7.88;3.85;;;;;;;-0.15;88.30;103389.94;5038590;28;20115;-75
2021/04/15 02:30:27;;;;;;;5.38;2.67;;;;;;;-0.18;87.95;103387.19;5036769;28;20321;-74
2021/04/15 02:33:01;;;;;;;8.25;3.78;;;;;;;-0.14;88.33;103384.78;5038625;28;20395;-75
2021/04/15 02:35:33;;;;;;;4.97;2.80;;;;;;;-0.09;88.74;103392.91;5037026;28;20065;-75
2021/04/15 02:38:02;;;;;;;5.65;2.92;;;;;;;-0.08;88.51;103381.59;5041847;28;20076;-74
2021/04/15 02:40:32;;;;;;;6.72;3.17;;;;;;;0.01;89.01;103392.56;5038037;28;20090;-74
2021/04/15 02:43:06;;;;;;;6.07;3.15;;;;;;;0.02;89.07;103381.25;5039521;28;20053;-74
2021/04/15 02:45:38;;;;;;;4.57;2.58;;;;;;;0.05;88.81;103380.47;5034917;28;20133;-74
2021/04/15 02:48:11;;;;;;;5.55;2.47;;;;;;;0.06;88.53;103383.19;5039021;28;20056;-74
2021/04/15 02:50:39;;;;;;;6.95;3.20;;;;;;;0.13;88.57;103372.19;5041642;28;20053;-77
2021/04/15 02:53:11;;;;;;;6.30;2.88;;;;;;;0.17;88.66;103376.78;5041238;28;20061;-75
2021/04/15 02:55:43;;;;;;;3.25;2.40;;;;;;;0.21;88.37;103375.22;5060243;28;20468;-75
2021/04/15 02:58:17;;;;;;;6.85;2.90;;;;;;;0.27;89.08;103378.13;5039137;28;20060;-74
2021/04/15 03:00:49;;;;;;;6.63;3.50;;;;;;;0.28;88.79;103376.44;5039530;28;20072;-74
2021/04/15 03:03:19;;;;;;;6.15;3.40;;;;;;;0.36;89.22;103376.00;5037978;28;20056;-72
2021/04/15 03:05:52;;;;;;;5.70;3.10;;;;;;;0.36;89.65;103377.72;5045614;28;20160;-73
2021/04/15 03:08:22;;;;;;;6.78;3.50;;;;;;;0.38;89.03;103372.56;5038495;28;20444;-73
2021/04/15 03:10:54;;;;;;;6.78;3.10;;;;;;;0.38;89.19;103376.06;5040344;28;20444;-73
2021/04/15 03:13:24;;;;;;;6.93;2.90;;;;;;;0.33;88.66;103375.81;5037907;28;20061;-73
2021/04/15 03:15:58;;;;;;;7.47;3.60;;;;;;;0.33;89.34;103378.44;5043100;28;20479;-73
2021/04/15 03:18:29;;;;;;;;;;;;;;;0.27;88.39;103371.97;5039930;28;20057;-73
2021/04/15 03:21:02;;;;;;;5.75;2.60;;;;;;;0.26;89.10;103371.09;5041955;28;20441;-73
2021/04/15 03:23:38;;;;;;;7.82;3.33;;;;;;;0.24;89.08;103374.44;5042845;28;20087;-73
2021/04/15 03:26:19;;;;;;;5.85;3.13;;;;;;;0.25;89.42;103371.91;5042111;28;20069;-74
2021/04/15 03:28:52;;;;;;;6.40;2.72;;;;;;;0.21;89.06;103366.44;5039597;28;20064;-75
2021/04/15 03:31:27;;;;;;;5.60;3.72;;;;;;;0.21;89.22;103371.69;5036878;28;20065;-74
2021/04/15 03:34:02;;;;;;;5.85;3.05;;;;;;;0.24;88.99;103369.19;5040135;28;20565;-74
2021/04/15 03:36:34;;;;;;;8.55;3.90;;;;;;;0.23;89.47;103370.94;5043642;28;20061;-73
2021/04/15 03:39:06;;;;;;;5.82;3.17;;;;;;;0.20;89.04;103368.13;5039220;28;20114;-73
2021/04/15 03:41:39;;;;;;;7.38;4.28;;;;;;;0.24;89.73;103370.13;5046709;28;20065;-74
2021/04/15 03:44:10;;;;;;;7.43;4.17;;;;;;;0.21;90.07;103369.06;5040049;28;20065;-74
2021/04/15 03:46:42;;;;;;;6.60;3.35;;;;;;;0.20;89.98;103373.41;5046097;28;20297;-73
2021/04/15 03:49:18;;;;;;;8.38;3.80;;;;;;;0.17;90.07;103368.91;5045169;28;20061;-73
2021/04/15 03:51:49;;;;;;;5.38;3.03;;;;;;;0.15;90.09;103372.25;5044982;28;20058;-73
2021/04/15 03:54:19;;;;;;;6.07;3.05;;;;;;;0.16;90.46;103367.09;5042545;28;20072;-74
2021/04/15 03:56:48;;;;;;;5.78;3.22;;;;;;;0.14;89.99;103368.75;5042574;28;20057;-73
2021/04/15 03:59:23;;;;;;;6.57;3.17;;;;;;;0.16;90.22;103364.47;5044843;28;20065;-73
2021/04/15 04:01:55;;;;;;;5.10;3.10;;;;;;;0.15;89.91;103360.06;5041454;28;20463;-73
2021/04/15 04:04:29;;;;;;;6.85;3.25;;;;;;;0.23;90.40;103359.53;5044643;28;20303;-74
2021/04/15 04:07:01;;;;;;;7.95;3.65;;;;;;;0.22;90.25;103357.72;5040022;28;20072;-75
2021/04/15 04:09:32;;;;;;;9.18;3.58;;;;;;;0.26;90.32;103357.97;5042732;28;20088;-73
2021/04/15 04:12:01;;;;;;;6.28;3.05;;;;;;;0.26;90.10;103357.97;5042127;28;20061;-74
2021/04/15 04:14:34;;;;;;;5.65;3.13;;;;;;;0.29;90.04;103358.13;5042112;28;20052;-75
2021/04/15 04:17:05;;;;;;;6.45;3.22;;;;;;;0.33;90.27;103348.66;5040888;28;20058;-74
2021/04/15 04:19:46;;;;;;;5.40;3.15;;;;;;;0.33;90.12;103357.44;5041515;28;20063;-75
2021/04/15 04:22:19;;;;;;;6.13;3.10;;;;;;;0.41;90.76;103359.53;5037813;28;20049;-74
2021/04/15 04:24:56;;;;;;;3.95;2.50;;;;;;;0.42;90.50;103366.63;5056655;28;20103;-71
2021/04/15 04:27:28;;;;;;;9.02;5.10;;;;;;;0.43;90.83;103361.44;5040405;28;20056;-71
2021/04/15 04:29:57;;;;;;;6.68;3.40;;;;;;;0.42;90.55;103370.13;5059890;28;20069;-72
2021/04/15 04:32:27;;;;;;;5.95;3.05;;;;;;;0.46;90.77;103363.28;5037820;28;20063;-71
2021/04/15 04:34:57;;;;;;;10.02;3.70;;;;;;;0.53;90.91;103373.31;5036672;28;20068;-71
2021/04/15 04:37:30;;;;;;;5.63;3.42;;;;;;;0.54;91.01;103365.47;5038193;28;20083;-71
2021/04/15 04:39:59;;;;;;;4.90;3.08;;;;;;;0.52;90.60;103363.63;5044884;28;20455;-71
2021/04/15 04:42:34;;;;;;;7.45;4.20;;;;;;;0.52;90.24;103369.75;5036924;28;20071;-71
2021/04/15 04:45:08;;;;;;;7.80;4.47;;;;;;;0.54;90.46;103376.00;5039277;28;20084;-71
2021/04/15 04:47:46;;;;;;;5.00;2.92;;;;;;;0.58;91.01;103374.44;5034690;28;20064;-71
2021/04/15 04:50:26;;;;;;;5.43;3.00;;;;;;;0.57;90.74;103375.25;5041151;28;20057;-74
2021/04/15 04:52:58;;;;;;;7.90;3.72;;;;;;;0.58;90.96;103381.41;5040046;28;20088;-73
2021/04/15 04:55:31;;;;;;;4.22;2.80;;;;;;;0.58;90.47;103382.31;5041369;28;20115;-73
2021/04/15 04:58:02;;;;;;;5.55;2.70;;;;;;;0.57;90.60;103383.13;5039386;28;20083;-74
2021/04/15 05:00:29;;;;;;;5.40;2.83;;;;;;;0.54;90.04;103381.25;5038045;28;20068;-75
2021/04/15 05:02:57;;;;;;;5.10;2.75;;;;;;;0.52;90.46;103380.28;5036800;28;20068;-73
2021/04/15 05:05:28;;;;;;;4.95;2.75;;;;;;;0.48;89.47;103378.34;5038368;28;20141;-71
2021/04/15 05:08:01;;;;;;;6.78;3.05;;;;;;;0.46;90.01;103385.25;5039350;28;20152;-71
2021/04/15 05:10:31;;;;;;;6.03;3.17;;;;;;;0.45;89.87;103386.06;5037913;28;20049;-71
2021/04/15 05:13:09;;;;;;;5.60;3.38;;;;;;;0.43;90.00;103384.19;5040582;28;20055;-72
2021/04/15 05:15:39;;;;;;;4.32;2.65;;;;;;;0.42;89.81;103383.25;5037422;28;20068;-72
2021/04/15 05:18:09;;;;;;;7.22;3.22;;;;;;;0.45;90.21;103388.69;5038337;28;20094;-71
2021/04/15 05:20:37;;;;;;;6.50;3.25;;;;;;;0.51;90.80;103393.34;5036827;28;20148;-71
2021/04/15 05:23:08;;;;;;;4.55;2.67;;;;;;;0.57;90.36;103398.91;5039068;28;20065;-71
2021/04/15 05:25:41;;;;;;;4.97;2.65;;;;;;;0.58;89.74;103391.91;5039212;28;20061;-71
2021/04/15 05:28:10;;;;;;;7.32;3.78;;;;;;;0.70;89.22;103390.81;5040098;28;20064;-71
2021/04/15 05:30:41;;;;;;;8.10;3.15;;;;;;;0.76;89.57;103394.56;5036713;28;20064;-70
2021/04/15 05:33:14;;;;;;;7.22;3.13;;;;;;;0.90;89.41;103391.78;5042584;28;20076;-71
2021/04/15 05:35:44;;;;;;;7.53;3.10;;;;;;;1.07;88.44;103399.56;5037431;28;20525;-71
2021/04/15 05:38:13;;;;;;;8.32;3.13;;;;;;;1.28;87.88;103403.25;5040006;28;20069;-71
2021/04/15 05:40:40;;;;;;;4.72;2.38;;;;;;;1.50;87.42;103401.63;5035327;28;20060;-72
2021/04/15 05:43:23;;;;;;;6.50;3.03;;;;;;;1.71;86.59;103401.69;5039599;28;20428;-72
2021/04/15 05:45:58;;;;;;;7.50;2.40;;;;;;;1.94;85.78;103393.91;5035222;28;20107;-72
2021/04/15 05:48:27;;;;;;;5.88;2.45;;;;;;;2.14;84.66;103402.69;5039817;28;20057;-71
2021/04/15 05:50:57;;;;;;;5.18;2.58;;;;;;;2.32;84.12;103402.63;5034193;28;20056;-72
2021/04/15 05:53:33;;;;;;;3.80;2.47;;;;;;;2.59;83.68;103401.13;5038870;28;20130;-71
2021/04/15 05:56:04;;;;;;;4.80;2.30;;;;;;;2.88;83.16;103401.44;5037895;28;20061;-73
2021/04/15 05:58:38;;;;;;;7.13;2.63;;;;;;;3.10;82.10;103403.19;5036723;28;20064;-71
2021/04/15 06:01:09;;;;;;;5.90;2.25;;;;;;;3.27;80.42;103400.31;5036663;28;20067;-71
2021/04/15 06:03:47;;;;;;;6.50;2.20;;;;;;;3.59;81.00;103393.63;5037054;28;20133;-72
2021/04/15 06:06:16;;;;;;;10.40;2.65;;;;;;;3.68;78.75;103393.97;5040152;28;20060;-71
2021/04/15 06:08:47;;;;;;;6.25;2.30;;;;;;;4.01;78.77;103396.06;5038550;28;20213;-72
2021/04/15 06:11:28;;;;;;;5.93;2.53;;;;;;;4.33;79.02;103400.69;5037312;28;20134;-72
2021/04/15 06:14:01;;;;;;;8.15;2.45;;;;;;;4.65;78.12;103399.13;5039961;28;20057;-72
2021/04/15 06:16:31;;;;;;;4.72;2.35;;;;;;;4.83;76.81;103398.84;5036573;28;20073;-71
2021/04/15 06:19:03;;;;;;;5.22;2.80;;;;;;;4.89;74.72;103399.03;5040209;28;20065;-72
2021/04/15 06:21:34;;;;;;;6.05;2.58;;;;;;;5.17;74.69;103392.84;5037431;28;20601;-72
2021/04/15 06:24:06;;;;;;;10.75;3.28;;;;;;;5.49;75.08;103387.66;5039636;28;20053;-73
2021/04/15 06:26:39;;;;;;;6.00;2.70;;;;;;;5.58;72.76;103389.66;5039941;28;20061;-73
2021/04/15 06:29:16;;;;;;;5.82;2.80;;;;;;;5.88;72.61;103389.66;5040215;28;20111;-75
2021/04/15 06:31:48;;;;;;;5.63;2.40;;;;;;;6.00;70.17;103385.59;5045887;28;20059;-73
2021/04/15 06:34:16;;;;;;;4.68;2.30;;;;;;;6.20;69.55;103387.03;5037866;28;20173;-73
2021/04/15 06:36:49;;;;;;;5.10;2.35;;;;;;;6.11;68.59;103389.41;5047158;28;20061;-72
2021/04/15 06:39:21;;;;;;;6.78;2.30;;;;;;;6.43;66.80;103384.97;5039088;28;20057;-73
2021/04/15 06:42:43;;;;;;;4.50;2.20;;;;;;;6.37;67.02;103384.81;5042009;28;20145;-73
2021/04/15 06:45:26;;;;;;;3.90;2.20;;;;;;;6.53;65.93;103383.44;4998485;28;20065;-73
2021/04/15 06:48:15;;;;;;;5.90;2.47;;;;;;;6.59;65.37;103377.38;4994403;28;20483;-73
2021/04/15 06:51:10;;;;;;;5.93;2.45;;;;;;;6.91;64.50;103384.41;4993255;28;20054;-72
2021/04/15 06:53:50;;;;;;;5.45;2.00;;;;;;;7.28;64.78;103385.22;4997382;28;20166;-72
2021/04/15 06:56:24;;;;;;;5.88;2.17;;;;;;;6.70;62.97;103382.09;4999925;28;20062;-72
2021/04/15 06:59:11;;;;;;;;;;;;;;;6.89;62.35;103387.88;5000511;28;20149;-72
2021/04/15 07:01:51;;;;;;;5.78;1.92;;;;;;;7.25;63.14;103379.88;4995932;28;19925;-74
2021/04/15 07:04:21;;;;;;;5.88;2.30;;;;;;;7.68;63.62;103385.19;5000318;28;20128;-71
2021/04/15 07:06:55;;;;;;;3.65;2.30;;;;;;;7.67;61.22;103381.63;5001119;28;20060;-72
2021/04/15 07:09:58;;;;;;;2.85;1.83;;;;;;;7.25;62.33;103385.19;4996695;28;20086;-71
2021/04/15 07:12:49;;;;;;;3.53;1.80;;;;;;;6.92;62.13;103387.94;5000606;28;20057;-71
2021/04/15 07:15:44;;;;;;;6.68;2.10;;;;;;;7.11;63.71;103395.47;5009811;28;20152;-72
2021/04/15 07:18:42;;;;;;;4.07;2.20;;;;;;;7.33;62.86;103390.66;5057747;28;20061;-72
2021/04/15 07:21:33;;;;;;;4.70;2.20;;;;;;;7.50;63.04;103395.44;5038723;28;20075;-72
2021/04/15 07:24:31;;;;;;;6.30;1.80;;;;;;;7.51;62.70;103397.22;5045755;28;20067;-72
2021/04/15 07:27:45;;;;;;;4.70;2.05;;;;;;;8.12;62.10;103393.16;5039397;28;20106;-72
2021/04/15 07:30:54;;;;;;;8.10;2.22;;;;;;;7.37;62.16;103397.84;5028324;28;20065;-73
2021/04/15 07:33:55;;;;;;;4.40;2.10;;;;;;;6.95;64.10;103401.28;5017814;28;20049;-74
2021/04/15 07:36:36;;;;;;;6.03;2.35;;;;;;;6.35;66.20;103402.44;5030695;28;20060;-74
2021/04/15 07:39:22;;;;;;;3.30;2.30;;;;;;;6.04;67.54;103406.00;5040651;28;20057;-74
2021/04/15 07:42:07;;;;;;;5.05;2.15;;;;;;;6.16;67.83;103407.25;5036949;28;20119;-73
2021/04/15 07:44:40;;;;;;;2.92;2.33;;;;;;;6.53;66.33;103400.25;5038432;28;20057;-73
2021/04/15 07:47:26;;;;;;;6.20;2.43;;;;;;;6.39;67.00;103414.03;5042049;28;20069;-73
2021/04/15 07:50:16;;;;;;;4.50;2.10;;;;;;;6.00;67.68;103414.75;5039237;28;20057;-73
2021/04/15 07:53:25;;;;;;;5.07;2.40;;;;;;;5.82;67.11;103415.97;5041126;28;20061;-73
2021/04/15 07:56:45;;;;;;;5.88;2.40;;;;;;;5.58;68.67;103425.03;5040629;28;20057;-73
2021/04/15 07:59:26;;;;;;;7.60;2.92;;;;;;;5.38;69.76;103429.72;4982398;28;20105;-73
2021/04/15 08:02:21;;;;;;;8.77;3.10;;;;;;;5.42;69.86;103426.28;4975906;28;20161;-73
2021/04/15 08:05:08;;;;;;;5.18;2.67;;;;;;;5.47;69.64;103428.19;4982475;28;20112;-73
2021/04/15 08:07:45;;;;;;;2.92;2.45;;;;;;;5.60;69.21;103422.38;4977571;28;20226;-72
2021/04/15 08:10:28;;;;;;;5.30;2.33;;;;;;;5.67;69.33;103423.47;4980182;28;21290;-78
2021/04/15 08:13:12;;;;;;;5.70;2.40;;;;;;;5.54;69.52;103428.41;4977517;28;20129;-75
2021/04/15 08:16:00;;;;;;;6.28;2.70;;;;;;;5.66;69.34;103429.66;4981225;28;20325;-73
2021/04/15 08:18:39;;;;;;;5.35;2.20;;;;;;;5.50;68.61;103433.56;4978205;28;20076;-74
2021/04/15 08:21:28;;;;;;;3.38;2.30;;;;;;;5.76;68.65;103431.72;4980557;28;20291;-74
2021/04/15 08:24:14;;;;;;;4.63;2.38;;;;;;;5.98;69.15;103431.50;4977981;28;20178;-74
2021/04/15 08:27:14;;;;;;;4.38;2.38;;;;;;;6.11;67.64;103424.81;4979235;28;20092;-73
2021/04/15 08:30:20;;;;;;;5.13;1.83;;;;;;;6.18;68.10;103433.81;5005829;28;20331;-74
2021/04/15 08:32:59;;;;;;;2.17;1.70;;;;;;;6.23;65.30;103428.63;5006257;28;20071;-72
2021/04/15 08:35:37;;;;;;;2.78;1.88;;;;;;;6.28;65.72;103437.59;5037067;28;20065;-72
2021/04/15 08:38:20;;;;;;;2.90;1.75;;;;;;;6.30;64.54;103441.19;5040150;28;20060;-72
2021/04/15 08:40:56;;;;;;;2.70;1.67;;;;;;;6.41;64.48;103436.19;5039093;28;20088;-73
2021/04/15 08:43:39;;;;;;;2.13;1.80;;;;;;;6.38;64.99;103437.00;5039162;28;20916;-73
2021/04/15 08:46:16;;;;;;;5.15;2.15;;;;;;;6.38;63.29;103441.41;5039944;28;20071;-72
2021/04/15 08:48:56;;;;;;;3.10;1.70;;;;;;;6.63;63.27;103435.88;5040357;28;20056;-72
2021/04/15 08:51:56;;;;;;;5.47;1.92;;;;;;;6.48;63.03;103443.44;5038592;28;20326;-74
2021/04/15 08:54:37;;;;;;;1.95;1.40;;;;;;;6.72;62.11;103435.22;5036245;28;20155;-72
2021/04/15 08:57:14;;;;;;;4.05;1.70;;;;;;;7.01;61.92;103438.59;5040056;28;20082;-72
2021/04/15 08:59:51;;;;;;;3.45;1.75;;;;;;;7.79;59.36;103435.91;5038118;28;20148;-72
2021/04/15 09:02:25;;;;;;;4.07;2.08;;;;;;;7.85;57.72;103431.63;5037603;28;20060;-71
2021/04/15 09:04:59;;;;;;;;;;;;;;;8.72;56.97;103430.63;5040727;28;20155;-72
2021/04/15 09:07:36;;;;;;;4.30;2.10;;;;;;;8.08;56.60;103432.94;5034514;28;20248;-71
2021/04/15 09:10:15;;;;;;;2.97;1.90;;;;;;;8.29;58.14;103438.69;5040367;28;21110;-72
2021/04/15 09:13:08;;;;;;;3.55;2.00;;;;;;;8.29;57.34;103433.38;5051356;28;20058;-73
2021/04/15 09:15:41;;;;;;;4.85;1.88;;;;;;;8.37;57.07;103436.16;5040852;28;20063;-71
2021/04/15 09:18:14;;;;;;;7.22;2.33;;;;;;;7.78;58.95;103435.03;5036385;28;20065;-71
2021/04/15 09:20:49;;;;;;;4.45;2.33;;;;;;;7.15;60.23;103446.00;5043088;28;20063;-72
2021/04/15 09:23:37;;;;;;;3.85;2.35;;;;;;;7.00;60.20;103441.19;5035705;28;20235;-70
2021/04/15 09:26:16;;;;;;;5.22;2.30;;;;;;;7.23;60.31;103436.44;5039994;28;20068;-70
2021/04/15 09:28:57;;;;;;;4.60;2.10;;;;;;;7.54;58.34;103434.47;5034577;28;20917;-71
2021/04/15 09:31:33;;;;;;;5.45;2.10;;;;;;;7.28;58.51;103441.00;5039524;28;20061;-70
2021/04/15 09:34:30;;;;;;;4.68;2.10;;;;;;;7.40;58.93;103436.84;5036022;28;20163;-70
2021/04/15 09:37:15;;;;;;;4.80;2.15;;;;;;;8.31;57.17;103434.28;5036264;28;20147;-71
2021/04/15 09:39:51;;;;;;;4.90;1.80;;;;;;;9.37;55.69;103421.84;5040594;28;20057;-69
2021/04/15 09:42:37;;;;;;;4.75;2.22;;;;;;;9.81;52.73;103418.88;5038335;28;20069;-70
2021/04/15 09:45:18;;;;;;;4.85;2.40;;;;;;;9.49;50.99;103419.34;5040775;28;20420;-72
2021/04/15 09:48:17;;;;;;;4.70;2.33;;;;;;;9.08;51.83;103414.31;5033153;28;20122;-72
2021/04/15 09:50:51;;;;;;;2.58;2.00;;;;;;;8.69;50.59;103418.13;5040839;28;20080;-72
2021/04/15 09:53:34;;;;;;;3.25;1.70;;;;;;;9.56;51.05;103419.44;5034548;28;20052;-72
2021/04/15 09:56:37;;;;;;;6.10;2.40;;;;;;;10.09;50.83;103419.19;5042056;28;20060;-74
2021/04/15 09:59:15;;;;;;;3.80;2.20;;;;;;;11.12;49.42;103417.47;5036582;28;20395;-73
2021/04/15 10:01:47;;;;;;;5.07;2.47;;;;;;;11.12;47.33;103403.22;5035658;28;20147;-73
2021/04/15 10:04:23;;;;;;;2.63;1.85;;;;;;;10.95;47.58;103409.31;5034751;28;20089;-74
2021/04/15 10:06:54;;;;;;;7.35;2.58;;;;;;;11.01;48.76;103416.47;5038882;28;20064;-73
2021/04/15 10:09:52;;;;;;;5.53;2.35;;;;;;;11.09;47.57;103414.75;5036018;28;20064;-74
2021/04/15 10:12:35;;;;;;;4.45;2.28;;;;;;;11.62;46.22;103413.28;5039150;28;20065;-75
2021/04/15 10:15:15;;;;;;;6.72;3.15;;;;;;;10.20;47.21;103420.19;5034395;28;20057;-75
2021/04/15 10:17:55;;;;;;;4.57;2.08;;;;;;;9.56;47.63;103427.44;5038406;28;20194;-74
2021/04/15 10:20:41;;;;;;;3.75;1.90;;;;;;;9.39;46.53;103429.88;5037995;28;20064;-74
2021/04/15 10:23:42;;;;;;;3.28;1.90;;;;;;;9.46;48.36;103429.94;5038739;28;20684;-74
2021/04/15 10:26:31;;;;;;;4.40;2.10;;;;;;;9.63;48.13;103426.63;5051714;28;20065;-72
2021/04/15 10:29:15;;;;;;;6.93;2.50;;;;;;;9.19;46.38;103438.44;5037150;28;20491;-72
2021/04/15 10:31:56;;;;;;;6.53;2.22;;;;;;;10.07;47.16;103424.50;5038768;28;20336;-73
2021/04/15 10:35:04;;;;;;;6.43;2.53;;;;;;;9.01;49.07;103428.41;5037489;28;20053;-73
2021/04/15 10:37:54;;;;;;;3.97;2.50;;;;;;;8.88;49.32;103431.75;5036971;28;20323;-72
2021/04/15 10:40:38;;;;;;;5.80;2.65;;;;;;;8.72;51.37;103433.28;5036726;28;20309;-72
2021/04/15 10:43:46;;;;;;;5.32;2.50;;;;;;;8.77;51.88;103429.81;5041595;28;20407;-73
2021/04/15 10:46:23;;;;;;;3.28;2.15;;;;;;;8.63;49.47;103430.44;5034951;28;20065;-73
2021/04/15 10:48:57;;;;;;;5.47;2.28;;;;;;;8.52;50.52;103431.16;5034404;28;20072;-71
2021/04/15 10:51:34;;;;;;;3.13;2.30;;;;;;;8.53;48.30;103435.63;5034827;28;20076;-70
2021/04/15 10:54:18;;;;;;;4.30;2.10;;;;;;;8.41;47.84;103433.59;5040241;28;20052;-70
2021/04/15 10:56:48;;;;;;;4.68;2.20;;;;;;;8.35;49.37;103433.47;5033787;28;20069;-71
2021/04/15 10:59:29;;;;;;;5.82;2.25;;;;;;;8.65;48.52;103431.34;5036764;28;20426;-70
2021/04/15 11:02:16;;;;;;;4.65;2.70;;;;;;;9.15;46.23;103423.31;5039501;28;20088;-71
2021/04/15 11:04:44;;;;;;;5.28;2.85;;;;;;;8.90;47.85;103412.25;5035607;28;20102;-70
2021/04/15 11:07:15;;;;;;;5.10;2.55;;;;;;;9.81;45.88;103400.19;5035878;28;20068;-71
2021/04/15 11:09:44;;;;;;;6.25;3.00;;;;;;;10.12;47.31;103413.00;5039052;28;21122;-71
2021/04/15 11:12:20;;;;;;;4.57;2.45;;;;;;;9.50;45.81;103399.81;5041185;28;20085;-71
2021/04/15 11:15:05;;;;;;;6.68;2.60;;;;;;;9.28;45.68;103401.28;5040065;28;20083;-73
2021/04/15 11:17:37;;;;;;;4.85;2.15;;;;;;;9.46;47.93;103403.31;5037718;28;20444;-73
2021/04/15 11:20:12;;;;;;;5.38;2.20;;;;;;;9.58;47.51;103402.56;5046120;28;20061;-73
2021/04/15 11:22:43;;;;;;;3.65;2.25;;;;;;;9.42;45.52;103400.59;5039311;28;20310;-73
2021/04/15 11:25:20;;;;;;;4.53;2.50;;;;;;;9.18;46.45;103414.44;5039594;28;20063;-74
2021/04/15 11:27:48;;;;;;;4.22;2.47;;;;;;;9.06;46.66;103405.41;5042505;28;20168;-74
2021/04/15 11:30:32;;;;;;;4.25;2.53;;;;;;;8.81;47.53;103404.13;5039239;28;20060;-74
2021/04/15 11:32:59;;;;;;;7.90;3.00;;;;;;;8.60;48.58;103405.56;5044273;28;20163;-73
2021/04/15 11:35:26;;;;;;;4.95;2.60;;;;;;;9.54;47.35;103403.41;5039628;28;20124;-71
2021/04/15 11:38:06;;;;;;;4.35;2.22;;;;;;;9.67;46.04;103396.47;5041768;28;20057;-70
2021/04/15 11:40:35;;;;;;;4.35;2.10;;;;;;;9.33;46.52;103391.59;5038487;28;20143;-72
2021/04/15 11:43:17;;;;;;;4.18;2.00;;;;;;;10.06;46.54;103389.78;5039566;28;20143;-71
2021/04/15 11:45:45;;;;;;;2.70;1.98;;;;;;;10.15;44.69;103383.66;5038921;28;20151;-72
2021/04/15 11:48:18;;;;;;;3.05;2.25;;;;;;;9.84;45.12;103381.56;5041645;28;20459;-72
2021/04/15 11:50:46;;;;;;;3.78;2.25;;;;;;;9.82;44.75;103385.09;5037570;28;20065;-72
2021/04/15 11:53:38;;;;;;;2.78;1.80;;;;;;;9.47;44.60;103385.56;5039354;28;20053;-72
2021/04/15 11:56:21;;;;;;;4.25;2.53;;;;;;;9.54;48.37;103380.31;5038032;28;20056;-72
2021/04/15 11:58:48;;;;;;;4.82;2.17;;;;;;;9.18;46.14;103382.47;5040381;28;20065;-71
2021/04/15 12:01:26;;;;;;;4.00;2.00;;;;;;;9.06;46.61;103384.09;5038703;28;20069;-72
2021/04/15 12:03:54;;;;;;;3.60;2.00;;;;;;;9.00;46.89;103392.00;5039280;28;20057;-72
2021/04/15 12:06:23;;;;;;;3.03;2.15;;;;;;;8.94;46.64;103386.59;5038977;28;20057;-72
2021/04/15 12:08:53;;;;;;;3.25;2.10;;;;;;;8.84;47.17;103387.31;5038505;28;20061;-71
2021/04/15 12:11:24;;;;;;;4.32;2.05;;;;;;;8.74;47.45;103384.50;5038569;28;20071;-72
2021/04/15 12:13:56;;;;;;;3.92;2.05;;;;;;;8.87;47.66;103385.59;5039579;28;20065;-72
2021/04/15 12:16:30;;;;;;;4.20;2.00;;;;;;;9.35;47.12;103375.63;5039454;28;20060;-72
2021/04/15 12:19:02;;;;;;;4.65;2.20;;;;;;;9.97;47.68;103373.72;5038786;28;20072;-72